Time;durP1;ratioP1;P1;durP2;ratioP2;P2;SDS_P1;SDS_P2;PMS_P1;PMS_P2;Temp;Humidity;BMP_temperature;BMP_pressure;BME280_temperature;BME280_humidity;BME280_pressure;Samples;Min_cycle;Max_cycle;Signal;HPM_P1;HPM_P2
2023/02/03 00:00:30;;;;;;;;;;;;;;;25.49;32.58;95292.16;4932618;29;1498;-64
2023/02/03 00:02:56;;;;;;;;;;;;;;;25.49;32.32;95297.50;4917248;29;1493;-65
2023/02/03 00:05:21;;;;;;;;;;;;;;;25.50;32.36;95303.72;4916984;29;1439;-65
2023/02/03 00:07:46;;;;;;;;;;;;;;;25.50;32.20;95307.22;4907352;29;1490;-65
2023/02/03 00:10:12;;;;;;;;;;;;;;;25.49;32.55;95300.19;4935603;29;1327;-65
2023/02/03 00:12:38;;;;;;;;;;;;;;;25.48;32.41;95309.31;4932287;29;1408;-65
2023/02/03 00:15:03;;;;;;;;;;;;;;;25.50;32.64;95306.38;4918088;29;1903;-65
2023/02/03 00:17:28;;;;;;;;;;;;;;;25.49;32.53;95307.44;4913501;29;1407;-66
2023/02/03 00:19:54;;;;;;;;;;;;;;;25.49;32.55;95321.69;4941970;28;1388;-66
2023/02/03 00:22:19;;;;;;;;;;;;;;;25.47;32.58;95322.97;4940513;29;1435;-66
2023/02/03 00:24:44;;;;;;;;;;;;;;;25.44;32.95;95315.38;4924674;29;1471;-66
2023/02/03 00:27:09;;;;;;;;;;;;;;;25.44;32.73;95315.38;4925569;29;1550;-65
2023/02/03 00:29:35;;;;;;;;;;;;;;;25.44;32.91;95318.06;4914434;29;1490;-65
2023/02/03 00:32:00;;;;;;;;;;;;;;;25.43;33.00;95321.81;4921113;29;1320;-65
2023/02/03 00:34:29;;;;;;;;;;;;;;;25.43;32.78;95321.81;4917917;29;1969;-65
2023/02/03 00:36:54;;;;;;;;;;;;;;;25.41;33.00;95316.66;4922994;29;1407;-65
2023/02/03 00:39:19;;;;;;;;;;;;;;;25.41;32.84;95326.56;4938265;29;1427;-66
2023/02/03 00:41:45;;;;;;;;;;;;;;;25.41;32.87;95329.25;4906605;29;1458;-64
2023/02/03 00:44:10;;;;;;;;;;;;;;;25.42;32.80;95341.66;4920314;29;1415;-64
2023/02/03 00:46:35;;;;;;;;;;;;;;;25.41;33.02;95337.31;4920682;29;802;-65
2023/02/03 00:49:01;;;;;;;;;;;;;;;25.39;33.06;95334.88;4928176;29;1318;-65
2023/02/03 00:51:26;;;;;;;;;;;;;;;25.40;33.11;95347.25;4920317;29;1462;-65
2023/02/03 00:53:52;;;;;;;;;;;;;;;25.40;33.11;95354.50;4911825;29;1903;-65
2023/02/03 00:56:17;;;;;;;;;;;;;;;25.40;32.94;95344.56;4937197;29;1415;-65
2023/02/03 00:58:42;;;;;;;;;;;;;;;25.40;32.91;95355.31;4921184;29;1483;-65
2023/02/03 01:01:08;;;;;;;;;;;;;;;25.41;32.94;95354.25;4948495;29;1525;-65
2023/02/03 01:03:33;;;;;;;;;;;;;;;25.31;33.05;95338.69;4930713;29;1320;-66
2023/02/03 01:06:09;;;;;;;;;;;;;;;25.43;33.09;95356.72;4916720;29;1320;-65
2023/02/03 01:08:34;;;;;;;;;;;;;;;25.43;33.11;95354.84;4928279;29;1348;-65
2023/02/03 01:11:04;;;;;;;;;;;;;;;25.42;33.49;95355.91;4936219;29;1406;-64
2023/02/03 01:13:29;;;;;;;;;;;;;;;25.43;33.25;95354.03;4928416;29;1327;-64
2023/02/03 01:15:55;;;;;;;;;;;;;;;25.43;33.43;95359.41;4910029;29;1906;-65
2023/02/03 01:18:20;;;;;;;;;;;;;;;25.44;33.41;95355.66;4921345;29;1352;-65
2023/02/03 01:20:45;;;;;;;;;;;;;;;25.44;33.26;95353.78;4923481;29;1486;-65
2023/02/03 01:23:10;;;;;;;;;;;;;;;25.45;33.46;95357.31;4935844;29;1414;-66
2023/02/03 01:25:36;;;;;;;;;;;;;;;25.45;33.30;95363.50;4921173;29;1426;-65
2023/02/03 01:28:01;;;;;;;;;;;;;;;25.45;33.58;95355.44;4923305;29;1360;-65
2023/02/03 01:30:26;;;;;;;;;;;;;;;25.45;33.54;95346.56;4919750;29;888;-65
2023/02/03 01:32:51;;;;;;;;;;;;;;;25.45;33.55;95352.75;4920495;29;1316;-65
2023/02/03 01:35:17;;;;;;;;;;;;;;;25.44;33.61;95350.28;4920540;29;1903;-65
2023/02/03 01:37:42;;;;;;;;;;;;;;;25.44;33.72;95350.28;4925951;29;1372;-66
2023/02/03 01:40:07;;;;;;;;;;;;;;;25.43;33.54;95354.84;4947072;29;1427;-66
2023/02/03 01:42:33;;;;;;;;;;;;;;;25.45;33.70;95360.00;4923526;29;1252;-65
2023/02/03 01:44:58;;;;;;;;;;;;;;;25.44;33.58;95366.41;4919255;29;906;-65
2023/02/03 01:47:29;;;;;;;;;;;;;;;25.47;33.56;95371.31;4921691;29;1327;-65
2023/02/03 01:49:58;;;;;;;;;;;;;;;25.49;33.73;95369.22;4925255;29;1458;-65
2023/02/03 01:52:24;;;;;;;;;;;;;;;25.49;33.67;95379.97;4938154;29;1430;-65
2023/02/03 01:54:51;;;;;;;;;;;;;;;25.48;33.82;95368.41;4937702;29;1911;-65
2023/02/03 01:57:20;;;;;;;;;;;;;;;25.51;33.67;95367.16;4926219;29;1467;-65
2023/02/03 01:59:47;;;;;;;;;;;;;;;25.49;33.66;95375.41;4916544;29;1392;-65
2023/02/03 02:02:12;;;;;;;;;;;;;;;25.51;33.60;95375.22;4913477;29;1372;-65
2023/02/03 02:04:55;;;;;;;;;;;;;;;25.50;33.97;95362.81;4921058;29;1371;-65
2023/02/03 02:07:22;;;;;;;;;;;;;;;25.48;33.64;95368.41;4937678;29;1470;-65
2023/02/03 02:09:47;;;;;;;;;;;;;;;25.48;33.88;95364.91;4921122;29;1469;-65
2023/02/03 02:12:12;;;;;;;;;;;;;;;25.46;33.74;95364.31;4923377;29;1312;-65
2023/02/03 02:14:39;;;;;;;;;;;;;;;25.47;33.90;95371.31;4922878;29;1907;-65
2023/02/03 02:17:22;;;;;;;;;;;;;;;25.46;33.72;95381.25;4932057;29;1487;-64
2023/02/03 02:19:47;;;;;;;;;;;;;;;25.44;33.89;95377.16;4919700;29;1415;-65
2023/02/03 02:22:21;;;;;;;;;;;;;;;25.45;33.69;95378.81;4925416;29;1371;-65
2023/02/03 02:25:05;;;;;;;;;;;;;;;25.46;33.52;95369.69;4918487;29;1244;-65
2023/02/03 02:28:01;;;;;;;;;;;;;;;25.44;33.57;95377.16;4932254;29;1328;-65
2023/02/03 02:30:26;;;;;;;;;;;;;;;25.43;33.80;95376.34;4919825;29;1474;-66
2023/02/03 02:32:54;;;;;;;;;;;;;;;25.44;33.79;95377.97;4918436;29;1494;-66
2023/02/03 02:35:22;;;;;;;;;;;;;;;25.45;34.08;95384.19;4909503;29;1906;-66
2023/02/03 02:38:07;;;;;;;;;;;;;;;25.47;33.89;95384.75;4919399;29;1305;-66
2023/02/03 02:40:51;;;;;;;;;;;;;;;25.46;34.08;95380.44;4924762;29;1467;-66
2023/02/03 02:43:20;;;;;;;;;;;;;;;25.46;33.89;95383.13;4936718;29;1300;-65
2023/02/03 02:45:45;;;;;;;;;;;;;;;25.45;34.09;95376.13;4913340;29;1411;-66
2023/02/03 02:48:19;;;;;;;;;;;;;;;25.45;34.00;95373.44;4918130;29;1301;-65
2023/02/03 02:50:46;;;;;;;;;;;;;;;25.45;34.00;95371.56;4937012;29;1387;-65
2023/02/03 02:53:13;;;;;;;;;;;;;;;25.47;34.09;95365.94;4937019;29;1474;-65
2023/02/03 02:55:39;;;;;;;;;;;;;;;25.47;34.22;95366.78;4934935;29;1975;-65
2023/02/03 02:58:08;;;;;;;;;;;;;;;25.50;34.47;95370.84;4924012;29;1387;-65
2023/02/03 03:00:35;;;;;;;;;;;;;;;25.53;34.29;95373.13;4926445;29;1486;-65
2023/02/03 03:03:12;;;;;;;;;;;;;;;25.57;33.99;95374.28;4936224;29;1447;-65
2023/02/03 03:05:38;;;;;;;;;;;;;;;25.57;33.97;95387.72;4918184;29;968;-65
2023/02/03 03:08:05;;;;;;;;;;;;;;;25.58;34.14;95389.34;4919636;29;1335;-65
2023/02/03 03:10:31;;;;;;;;;;;;;;;25.61;33.87;95398.81;4930013;29;1454;-65
2023/02/03 03:13:00;;;;;;;;;;;;;;;25.60;34.15;95397.19;4934055;29;1324;-65
2023/02/03 03:15:28;;;;;;;;;;;;;;;25.61;34.15;95406.88;4917772;29;1899;-64
2023/02/03 03:17:57;;;;;;;;;;;;;;;25.62;34.14;95401.31;4932246;29;1419;-64
2023/02/03 03:20:24;;;;;;;;;;;;;;;25.61;34.32;95409.56;4930761;29;1455;-65
2023/02/03 03:22:53;;;;;;;;;;;;;;;25.61;34.41;95410.38;4929633;29;1415;-65
2023/02/03 03:25:20;;;;;;;;;;;;;;;25.60;34.33;95414.13;4920658;29;1434;-64
2023/02/03 03:27:48;;;;;;;;;;;;;;;25.59;34.45;95417.88;4932862;29;1438;-64
2023/02/03 03:30:17;;;;;;;;;;;;;;;25.57;34.41;95415.41;4935727;29;1526;-65
2023/02/03 03:32:42;;;;;;;;;;;;;;;25.56;34.62;95435.28;4924805;29;1418;-64
2023/02/03 03:35:08;;;;;;;;;;;;;;;25.56;34.24;95426.41;4936156;29;1899;-65
2023/02/03 03:37:44;;;;;;;;;;;;;;;25.54;34.33;95426.59;4922835;29;1481;-65
2023/02/03 03:40:14;;;;;;;;;;;;;;;25.55;34.48;95428.25;4919909;29;1509;-65
2023/02/03 03:42:57;;;;;;;;;;;;;;;25.55;34.34;95440.84;4920767;29;1403;-64
2023/02/03 03:45:39;;;;;;;;;;;;;;;25.54;34.59;95447.28;4925769;29;1296;-65
2023/02/03 03:48:05;;;;;;;;;;;;;;;25.54;34.52;95441.91;4935989;29;1494;-65
2023/02/03 03:50:33;;;;;;;;;;;;;;;25.55;34.64;95432.78;4936148;29;1410;-65
2023/02/03 03:53:00;;;;;;;;;;;;;;;25.54;34.65;95447.28;4931563;29;1399;-65
2023/02/03 03:55:27;;;;;;;;;;;;;;;25.55;34.55;95448.91;4914254;29;1919;-66
2023/02/03 03:57:55;;;;;;;;;;;;;;;25.55;34.66;95451.59;4934221;29;1424;-66
2023/02/03 04:00:23;;;;;;;;;;;;;;;25.55;34.47;95455.09;4936014;29;1426;-66
2023/02/03 04:02:51;;;;;;;;;;;;;;;25.55;34.70;95459.66;4935714;29;1304;-65
2023/02/03 04:05:16;;;;;;;;;;;;;;;25.62;34.62;95460.41;4923952;29;1402;-64
2023/02/03 04:07:44;;;;;;;;;;;;;;;25.55;34.56;95459.66;4930700;29;1391;-64
2023/02/03 04:10:35;;;;;;;;;;;;;;;24.97;35.02;95460.09;4924372;29;1327;-66
2023/02/03 04:13:00;;;;;;;;;;;;;;;24.52;36.11;95465.66;4915885;29;1309;-66
2023/02/03 04:15:26;;;;;;;;;;;;;;;21.74;26.56;95479.47;4916856;29;1898;-65
2023/02/03 04:17:53;;;;;;;;;;;;;;;20.36;28.14;95475.78;4907074;29;1412;-64
2023/02/03 04:20:18;;;;;;;;;;;;;;;19.52;27.84;95471.88;4941904;29;1344;-64
2023/02/03 04:22:43;;;;;;;;;;;;;;;19.14;27.97;95476.53;4939686;29;1395;-65
2023/02/03 04:25:09;;;;;;;;;;;;;;;18.78;27.47;95477.25;4936355;29;1483;-65
2023/02/03 04:27:34;;;;;;;;;;;;;;;18.60;27.83;95490.88;4930859;29;1410;-64
2023/02/03 04:30:00;;;;;;;;;;;;;;;18.38;27.22;95473.13;4945874;28;1288;-64
2023/02/03 04:32:25;;;;;;;;;;;;;;;18.17;27.11;95485.28;4941496;29;1554;-65
2023/02/03 04:34:51;;;;;;;;;;;;;;;17.98;27.21;95480.44;4940428;29;1970;-65
2023/02/03 04:37:16;;;;;;;;;;;;;;;17.77;27.27;95481.88;4938708;29;1486;-65
2023/02/03 04:39:42;;;;;;;;;;;;;;;17.93;26.89;95483.66;4925234;29;1395;-64
2023/02/03 04:42:07;;;;;;;;;;;;;;;17.70;26.77;95488.91;4941643;29;1243;-65
2023/02/03 04:44:32;;;;;;;;;;;;;;;17.58;26.76;95497.44;4941176;29;1497;-64
2023/02/03 04:46:57;;;;;;;;;;;;;;;17.64;26.91;95497.56;4942289;29;806;-65
2023/02/03 04:49:23;;;;;;;;;;;;;;;17.66;26.50;95500.88;4932232;29;1335;-64
2023/02/03 04:51:48;;;;;;;;;;;;;;;18.19;27.03;95509.84;4928308;29;1443;-71
2023/02/03 04:54:14;;;;;;;;;;;;;;;19.22;27.28;95510.19;4939168;29;1898;-65
2023/02/03 04:56:39;;;;;;;;;;;;;;;19.64;26.29;95508.66;4927001;29;1411;-65
2023/02/03 04:59:04;;;;;;;;;;;;;;;19.87;25.30;95514.69;4939188;29;1348;-65
2023/02/03 05:01:30;;;;;;;;;;;;;;;19.89;24.88;95512.63;4938259;29;1426;-66
2023/02/03 05:03:55;;;;;;;;;;;;;;;20.36;26.00;95513.91;4930191;29;1420;-65
2023/02/03 05:06:24;;;;;;;;;;;;;;;21.07;26.32;95521.84;4925065;29;1324;-64
2023/02/03 05:08:50;;;;;;;;;;;;;;;21.56;25.54;95530.75;4935203;29;1316;-64
2023/02/03 05:11:15;;;;;;;;;;;;;;;21.43;25.14;95520.00;4939781;29;1200;-65
2023/02/03 05:13:40;;;;;;;;;;;;;;;21.57;25.30;95532.41;4931751;29;1474;-65
2023/02/03 05:16:06;;;;;;;;;;;;;;;21.72;25.02;95532.28;4935564;29;1968;-65
2023/02/03 05:18:31;;;;;;;;;;;;;;;21.78;24.98;95529.63;4933029;29;1232;-65
2023/02/03 05:20:56;;;;;;;;;;;;;;;21.95;25.34;95529.28;4894453;28;12674;-73
2023/02/03 05:23:21;;;;;;;;;;;;;;;22.32;25.55;95540.47;4952705;29;1518;-65
2023/02/03 05:25:47;;;;;;;;;;;;;;;22.34;25.01;95543.75;4949695;28;1394;-65
2023/02/03 05:28:12;;;;;;;;;;;;;;;22.52;25.75;95540.50;4971115;28;1370;-65
2023/02/03 05:30:37;;;;;;;;;;;;;;;22.77;25.82;95548.72;4957728;28;1255;-64
2023/02/03 05:33:02;;;;;;;;;;;;;;;22.95;25.71;95540.94;4955583;28;1469;-66
2023/02/03 05:35:28;;;;;;;;;;;;;;;23.09;25.80;95539.06;4956750;28;1903;-64
2023/02/03 05:37:53;;;;;;;;;;;;;;;23.20;25.95;95537.63;4947698;28;1141;-64
2023/02/03 05:43:02;;;;;;;;;;;;;;;23.38;25.75;95534.28;4945423;29;1419;-64
2023/02/03 05:45:28;;;;;;;;;;;;;;;23.44;26.08;95544.13;4957757;28;847;-65
2023/02/03 05:47:53;;;;;;;;;;;;;;;23.51;26.00;95544.94;4948287;28;1267;-65
2023/02/03 05:50:18;;;;;;;;;;;;;;;23.56;26.07;95543.28;4959195;28;1013;-65
2023/02/03 05:52:43;;;;;;;;;;;;;;;23.61;26.07;95541.81;4956045;29;1366;-65
2023/02/03 05:55:09;;;;;;;;;;;;;;;23.65;26.13;95548.38;4957191;29;1907;-66
2023/02/03 05:57:34;;;;;;;;;;;;;;;23.68;26.03;95545.28;4972033;28;1582;-65
2023/02/03 05:59:59;;;;;;;;;;;;;;;23.71;26.10;95542.22;4947418;28;1072;-65
2023/02/03 06:02:24;;;;;;;;;;;;;;;23.74;26.11;95544.47;4957134;29;885;-65
2023/02/03 06:04:50;;;;;;;;;;;;;;;23.77;26.32;95546.72;4957431;29;843;-66
2023/02/03 06:07:15;;;;;;;;;;;;;;;23.81;25.99;95553.31;4956972;29;1062;-65
2023/02/03 06:09:40;;;;;;;;;;;;;;;23.82;26.17;95557.63;4954135;29;849;-65
2023/02/03 06:12:06;;;;;;;;;;;;;;;23.85;26.04;95557.22;4950304;29;1114;-65
2023/02/03 06:14:31;;;;;;;;;;;;;;;23.86;26.32;95558.03;4956790;29;1956;-65
2023/02/03 06:16:56;;;;;;;;;;;;;;;23.88;26.30;95559.47;4956946;29;869;-65
2023/02/03 06:19:21;;;;;;;;;;;;;;;23.91;26.23;95560.91;4956773;29;869;-65
2023/02/03 06:21:47;;;;;;;;;;;;;;;23.93;26.31;95565.00;4947340;29;1062;-66
2023/02/03 06:24:12;;;;;;;;;;;;;;;23.95;26.40;95562.09;4956739;28;1038;-65
2023/02/03 06:26:37;;;;;;;;;;;;;;;23.98;26.24;95567.03;4956714;29;906;-65
2023/02/03 06:29:03;;;;;;;;;;;;;;;23.99;26.21;95577.56;4956686;29;932;-65
2023/02/03 06:31:28;;;;;;;;;;;;;;;23.99;26.54;95580.25;4956705;28;920;-66
2023/02/03 06:33:56;;;;;;;;;;;;;;;24.02;26.38;95577.13;4946765;28;1890;-66
2023/02/03 06:36:21;;;;;;;;;;;;;;;24.02;26.36;95579.81;4956524;29;980;-66
2023/02/03 06:38:46;;;;;;;;;;;;;;;24.06;26.62;95574.03;4956474;28;804;-65
2023/02/03 06:41:11;;;;;;;;;;;;;;;24.06;26.71;95580.19;4956113;28;1288;-66
2023/02/03 06:43:37;;;;;;;;;;;;;;;24.08;26.53;95588.00;4956717;29;799;-65
2023/02/03 06:46:02;;;;;;;;;;;;;;;24.09;26.41;95587.81;4945186;28;1344;-65
2023/02/03 06:48:27;;;;;;;;;;;;;;;24.12;26.73;95581.22;4956684;29;849;-65
2023/02/03 06:50:53;;;;;;;;;;;;;;;24.13;26.59;95582.84;4956598;29;865;-65
2023/02/03 06:53:18;;;;;;;;;;;;;;;24.15;26.59;95583.47;4956234;29;814;-65
2023/02/03 06:55:43;;;;;;;;;;;;;;;24.07;26.66;95570.28;4948476;29;1926;-65
2023/02/03 06:58:08;;;;;;;;;;;;;;;24.19;26.69;95581.97;4952815;29;1138;-65
2023/02/03 07:00:34;;;;;;;;;;;;;;;24.20;26.66;95583.66;4970879;28;1284;-65
2023/02/03 07:03:00;;;;;;;;;;;;;;;24.21;26.60;95586.09;4956120;29;806;-64
2023/02/03 07:05:26;;;;;;;;;;;;;;;24.23;26.53;95578.66;4955930;29;866;-65
2023/02/03 07:07:52;;;;;;;;;;;;;;;24.27;26.68;95580.91;4946009;28;1158;-65
2023/02/03 07:10:17;;;;;;;;;;;;;;;24.28;26.62;95571.81;4955783;29;853;-65
2023/02/03 07:12:43;;;;;;;;;;;;;;;24.31;26.73;95574.91;4956079;29;863;-65
2023/02/03 07:15:09;;;;;;;;;;;;;;;24.33;26.76;95580.88;4955883;28;1911;-65
2023/02/03 07:17:34;;;;;;;;;;;;;;;24.35;26.42;95581.47;4954440;29;1534;-65
2023/02/03 07:19:59;;;;;;;;;;;;;;;24.37;26.71;95576.72;4945906;29;1126;-65
2023/02/03 07:22:25;;;;;;;;;;;;;;;24.39;26.59;95590.75;4955666;29;887;-65
2023/02/03 07:24:50;;;;;;;;;;;;;;;24.42;26.62;95601.06;4970267;28;1384;-65
2023/02/03 07:27:15;;;;;;;;;;;;;;;24.44;26.82;95604.34;4955482;29;946;-65
2023/02/03 07:29:40;;;;;;;;;;;;;;;24.46;26.72;95601.47;4950754;29;1068;-64
2023/02/03 07:32:06;;;;;;;;;;;;;;;24.48;26.76;95607.44;4950486;28;1151;-65
2023/02/03 07:34:31;;;;;;;;;;;;;;;24.49;26.48;95617.13;4970063;28;1968;-65
2023/02/03 07:36:56;;;;;;;;;;;;;;;24.53;26.55;95623.69;4955361;28;792;-64
2023/02/03 07:39:21;;;;;;;;;;;;;;;24.54;26.80;95621.84;4955562;29;857;-65
2023/02/03 07:41:47;;;;;;;;;;;;;;;24.56;26.49;95622.44;4959849;28;1409;-65
2023/02/03 07:44:12;;;;;;;;;;;;;;;24.57;26.72;95626.78;4955129;29;980;-66
2023/02/03 07:46:43;;;;;;;;;;;;;;;24.60;26.66;95618.31;4955121;28;882;-65
2023/02/03 07:49:09;;;;;;;;;;;;;;;24.59;26.61;95635.41;4955141;28;889;-65
2023/02/03 07:51:34;;;;;;;;;;;;;;;24.61;26.70;95628.00;4955227;28;881;-64
2023/02/03 07:53:59;;;;;;;;;;;;;;;24.62;26.96;95626.97;4959492;28;1976;-65
2023/02/03 07:56:24;;;;;;;;;;;;;;;24.63;26.69;95623.25;4955120;29;874;-65
2023/02/03 07:58:53;;;;;;;;;;;;;;;24.66;26.82;95609.38;4955392;29;927;-64
2023/02/03 08:01:18;;;;;;;;;;;;;;;24.66;26.84;95612.88;4955039;29;949;-66
2023/02/03 08:03:43;;;;;;;;;;;;;;;24.70;26.74;95613.28;4950413;29;1176;-65
2023/02/03 08:06:09;;;;;;;;;;;;;;;24.71;26.81;95612.25;4950095;29;973;-65
2023/02/03 08:08:34;;;;;;;;;;;;;;;24.75;26.87;95609.94;4955063;28;976;-66
2023/02/03 08:11:00;;;;;;;;;;;;;;;24.76;26.65;95608.91;4953746;29;1292;-65
2023/02/03 08:13:25;;;;;;;;;;;;;;;24.77;26.75;95622.13;4955304;28;788;-66
2023/02/03 08:15:51;;;;;;;;;;;;;;;24.80;26.85;95619.00;4945035;28;1910;-65
2023/02/03 08:18:16;;;;;;;;;;;;;;;24.81;26.91;95617.94;4954918;28;811;-64
2023/02/03 08:20:41;;;;;;;;;;;;;;;24.84;26.80;95620.19;4954807;29;873;-65
2023/02/03 08:23:06;;;;;;;;;;;;;;;24.86;26.88;95619.97;4955148;29;829;-64
2023/02/03 08:25:32;;;;;;;;;;;;;;;24.89;27.05;95628.41;4969547;28;1186;-65
2023/02/03 08:27:57;;;;;;;;;;;;;;;24.90;26.61;95624.72;4943624;28;1320;-65
2023/02/03 08:30:22;;;;;;;;;;;;;;;24.94;26.59;95625.09;4954673;28;911;-65
2023/02/03 08:32:48;;;;;;;;;;;;;;;24.96;26.74;95638.28;4954769;29;886;-65
2023/02/03 08:35:13;;;;;;;;;;;;;;;24.97;26.68;95623.84;4955031;28;1907;-65
2023/02/03 08:37:39;;;;;;;;;;;;;;;24.98;26.73;95630.84;4949949;29;1099;-64
2023/02/03 08:40:04;;;;;;;;;;;;;;;24.99;26.61;95632.47;4949336;28;1239;-65
2023/02/03 08:42:30;;;;;;;;;;;;;;;25.00;26.74;95634.94;4954639;28;1131;-65
2023/02/03 08:44:55;;;;;;;;;;;;;;;25.01;26.69;95638.44;4954711;29;889;-65
2023/02/03 08:47:20;;;;;;;;;;;;;;;25.02;26.91;95637.44;4954596;29;815;-65
2023/02/03 08:49:46;;;;;;;;;;;;;;;25.03;26.71;95639.88;4945024;28;1022;-65
2023/02/03 08:52:12;;;;;;;;;;;;;;;25.02;26.67;95649.00;4954807;29;802;-66
2023/02/03 08:54:37;;;;;;;;;;;;;;;25.03;26.79;95649.81;4954554;28;1911;-66
2023/02/03 08:57:03;;;;;;;;;;;;;;;25.03;26.84;95647.94;4954594;28;861;-66
2023/02/03 08:59:29;;;;;;;;;;;;;;;25.02;26.85;95654.34;4953317;28;1425;-66
2023/02/03 09:01:55;;;;;;;;;;;;;;;25.02;27.00;95653.53;4944640;28;1074;-66
2023/02/03 09:04:23;;;;;;;;;;;;;;;25.02;26.83;95653.53;4954506;28;865;-66
2023/02/03 09:06:55;;;;;;;;;;;;;;;25.01;26.76;95643.81;4957277;28;892;-66
2023/02/03 09:09:21;;;;;;;;;;;;;;;25.00;26.93;95648.38;4958153;28;818;-64
2023/02/03 09:11:46;;;;;;;;;;;;;;;24.99;26.98;95652.09;4953556;28;972;-64
2023/02/03 09:14:12;;;;;;;;;;;;;;;25.00;27.11;95652.94;4952808;28;1902;-66
2023/02/03 09:16:37;;;;;;;;;;;;;;;25.00;26.90;95653.75;4958024;28;850;-64
2023/02/03 09:19:03;;;;;;;;;;;;;;;25.01;26.92;95651.88;4957937;28;826;-65
2023/02/03 09:21:28;;;;;;;;;;;;;;;25.00;26.86;95639.50;4958007;29;913;-65
2023/02/03 09:23:53;;;;;;;;;;;;;;;25.01;27.03;95638.44;4947941;29;1065;-65
2023/02/03 09:26:18;;;;;;;;;;;;;;;25.02;26.98;95632.06;4957847;29;853;-65
2023/02/03 09:28:44;;;;;;;;;;;;;;;25.00;26.93;95634.94;4958078;29;798;-66
2023/02/03 09:31:10;;;;;;;;;;;;;;;25.01;26.88;95638.44;4957735;28;893;-66
2023/02/03 09:33:35;;;;;;;;;;;;;;;25.00;26.95;95624.22;4957715;28;798;-66
2023/02/03 09:36:01;;;;;;;;;;;;;;;25.01;27.01;95631.22;4947764;28;1956;-64
2023/02/03 09:38:27;;;;;;;;;;;;;;;25.00;26.96;95631.44;4957876;28;893;-65
2023/02/03 09:40:54;;;;;;;;;;;;;;;25.02;26.99;95634.75;4957493;28;1275;-65
2023/02/03 09:43:23;;;;;;;;;;;;;;;25.01;27.00;95635.78;4957354;28;814;-65
2023/02/03 09:45:49;;;;;;;;;;;;;;;25.02;26.97;95632.88;4952742;29;1075;-65
2023/02/03 09:48:18;;;;;;;;;;;;;;;25.03;27.04;95636.38;4952288;28;1067;-65
2023/02/03 09:50:43;;;;;;;;;;;;;;;25.02;27.25;95621.31;4956049;29;1555;-65
2023/02/03 09:53:29;;;;;;;;;;;;;;;25.04;27.09;95625.41;4957404;28;952;-66
2023/02/03 09:55:57;;;;;;;;;;;;;;;25.04;27.05;95643.38;4957245;28;1968;-65
2023/02/03 09:58:23;;;;;;;;;;;;;;;25.04;26.99;95636.16;4962256;28;1436;-65
2023/02/03 10:00:57;;;;;;;;;;;;;;;25.04;26.93;95635.34;4957185;28;894;-65
2023/02/03 10:03:25;;;;;;;;;;;;;;;25.05;27.12;95640.50;4957379;28;810;-65
2023/02/03 10:06:05;;;;;;;;;;;;;;;25.05;26.96;95637.81;4957010;29;873;-65
2023/02/03 10:08:30;;;;;;;;;;;;;;;25.05;26.94;95642.38;4952568;28;1009;-65
2023/02/03 10:11:16;;;;;;;;;;;;;;;25.05;26.89;95637.00;4951900;29;1062;-65
2023/02/03 10:13:53;;;;;;;;;;;;;;;25.05;26.97;95639.69;4957291;28;825;-65
2023/02/03 10:16:22;;;;;;;;;;;;;;;25.04;27.18;95632.66;4956464;28;834;-65
2023/02/03 10:18:52;;;;;;;;;;;;;;;25.04;26.86;95630.78;4957148;29;858;-65
2023/02/03 10:21:30;;;;;;;;;;;;;;;25.05;27.00;95639.69;4946944;28;1113;-65
2023/02/03 10:23:57;;;;;;;;;;;;;;;25.05;27.20;95631.63;4957112;28;818;-65
2023/02/03 10:26:24;;;;;;;;;;;;;;;25.06;27.15;95644.00;4956834;28;936;-65
2023/02/03 10:28:54;;;;;;;;;;;;;;;25.05;27.08;95639.69;4955432;29;1204;-65
2023/02/03 10:31:21;;;;;;;;;;;;;;;25.04;27.23;95636.16;4951914;28;1029;-66
2023/02/03 10:33:48;;;;;;;;;;;;;;;25.04;27.09;95649.56;4951682;28;1170;-64
2023/02/03 10:36:21;;;;;;;;;;;;;;;25.04;26.96;95640.69;4956466;28;1895;-66
2023/02/03 10:39:00;;;;;;;;;;;;;;;25.03;27.05;95634.50;4956530;28;857;-66
2023/02/03 10:41:28;;;;;;;;;;;;;;;25.02;27.06;95626.69;4956238;28;1433;-66
2023/02/03 10:43:54;;;;;;;;;;;;;;;25.01;27.23;95628.53;4946558;28;1073;-66
2023/02/03 10:46:25;;;;;;;;;;;;;;;25.03;27.23;95628.31;4956310;28;987;-66
2023/02/03 10:48:50;;;;;;;;;;;;;;;25.01;27.14;95631.22;4971161;28;921;-65
2023/02/03 10:51:26;;;;;;;;;;;;;;;25.01;27.13;95633.09;4956138;29;881;-65
2023/02/03 10:53:54;;;;;;;;;;;;;;;25.00;27.12;95628.75;4951812;28;1005;-66
2023/02/03 10:56:28;;;;;;;;;;;;;;;24.99;27.15;95627.94;4950841;28;1910;-65
2023/02/03 10:58:55;;;;;;;;;;;;;;;24.99;27.12;95632.47;4956205;28;849;-66
2023/02/03 11:01:22;;;;;;;;;;;;;;;25.00;27.17;95644.88;4956320;28;815;-66
2023/02/03 11:04:02;;;;;;;;;;;;;;;24.99;27.16;95632.47;4956025;28;944;-65
2023/02/03 11:06:27;;;;;;;;;;;;;;;25.00;27.12;95636.81;4946228;28;1141;-66
2023/02/03 11:08:53;;;;;;;;;;;;;;;24.99;27.21;95644.06;4955897;28;860;-65
2023/02/03 11:11:26;;;;;;;;;;;;;;;24.99;27.14;95632.47;4955856;28;879;-65
2023/02/03 11:14:08;;;;;;;;;;;;;;;24.98;27.22;95637.03;4956133;28;798;-65
2023/02/03 11:16:35;;;;;;;;;;;;;;;24.97;27.19;95635.38;4951269;28;1001;-66
2023/02/03 11:19:17;;;;;;;;;;;;;;;24.97;27.28;95626.53;4950659;28;1193;-66
2023/02/03 11:21:44;;;;;;;;;;;;;;;24.98;27.14;95622.78;4955731;28;957;-66
2023/02/03 11:24:24;;;;;;;;;;;;;;;24.98;27.12;95614.72;4955690;28;857;-66
2023/02/03 11:26:49;;;;;;;;;;;;;;;24.96;27.32;95606.91;4955603;29;965;-65
2023/02/03 11:29:22;;;;;;;;;;;;;;;24.97;27.31;95605.88;4944978;28;1103;-66
2023/02/03 11:31:49;;;;;;;;;;;;;;;24.98;27.23;95601.31;4956028;28;874;-65
2023/02/03 11:34:16;;;;;;;;;;;;;;;24.97;27.16;95592.44;4955438;28;1899;-66
2023/02/03 11:36:41;;;;;;;;;;;;;;;24.98;27.21;95593.25;4955750;28;869;-65
2023/02/03 11:39:27;;;;;;;;;;;;;;;24.85;27.54;95570.03;4952331;29;810;-65
2023/02/03 11:41:53;;;;;;;;;;;;;;;24.99;27.16;95582.31;4949515;28;1595;-65
2023/02/03 11:44:22;;;;;;;;;;;;;;;24.98;27.35;95575.28;4955283;28;889;-65
2023/02/03 11:46:53;;;;;;;;;;;;;;;24.98;27.19;95580.66;4955272;28;780;-65
2023/02/03 11:49:41;;;;;;;;;;;;;;;24.98;27.09;95580.66;4955349;28;881;-65
2023/02/03 11:52:07;;;;;;;;;;;;;;;24.99;27.22;95565.38;4940140;28;1059;-65
2023/02/03 11:54:39;;;;;;;;;;;;;;;24.97;27.25;95568.28;4955244;29;1907;-65
2023/02/03 11:57:32;;;;;;;;;;;;;;;24.99;27.27;95568.03;4955181;28;798;-65
2023/02/03 12:00:12;;;;;;;;;;;;;;;24.94;27.45;95566.03;4955462;28;871;-65
2023/02/03 12:02:45;;;;;;;;;;;;;;;24.91;27.27;95572.66;4945393;28;1060;-65
2023/02/03 12:05:30;;;;;;;;;;;;;;;24.90;27.22;95568.34;4954911;28;1130;-65
2023/02/03 12:08:07;;;;;;;;;;;;;;;24.90;27.14;95581.78;4955117;28;888;-65
2023/02/03 12:10:32;;;;;;;;;;;;;;;24.89;27.38;95572.06;4954900;29;857;-65
2023/02/03 12:13:04;;;;;;;;;;;;;;;24.89;27.49;95577.41;4954941;29;861;-66
2023/02/03 12:15:52;;;;;;;;;;;;;;;24.90;27.29;95575.56;4945027;28;1956;-65
2023/02/03 12:18:47;;;;;;;;;;;;;;;24.90;27.37;95576.41;4946057;29;1277;-66
2023/02/03 12:21:15;;;;;;;;;;;;;;;24.90;27.66;95576.41;4941031;29;1166;-66
2023/02/03 12:23:46;;;;;;;;;;;;;;;24.89;27.55;95580.09;4954913;29;982;-65
2023/02/03 12:26:30;;;;;;;;;;;;;;;24.89;27.38;95574.75;4945063;28;1129;-65
2023/02/03 12:28:55;;;;;;;;;;;;;;;24.88;27.25;95578.47;4954751;29;881;-66
2023/02/03 12:31:32;;;;;;;;;;;;;;;24.87;27.59;95578.69;4955032;29;942;-65
2023/02/03 12:34:09;;;;;;;;;;;;;;;24.87;27.38;95562.56;4954820;28;849;-66
2023/02/03 12:36:38;;;;;;;;;;;;;;;24.87;27.39;95560.75;4947327;29;994;-64
2023/02/03 12:39:09;;;;;;;;;;;;;;;24.87;27.74;95566.09;4954040;28;1145;-66
2023/02/03 12:41:37;;;;;;;;;;;;;;;24.88;27.58;95551.63;4958505;28;1359;-66
2023/02/03 12:44:16;;;;;;;;;;;;;;;24.88;27.53;95546.28;4958919;28;882;-66
2023/02/03 12:46:47;;;;;;;;;;;;;;;24.87;27.60;95547.31;4958773;28;850;-66
2023/02/03 12:49:31;;;;;;;;;;;;;;;24.89;27.46;95541.72;4948690;28;1127;-66
2023/02/03 12:52:01;;;;;;;;;;;;;;;24.87;27.42;95544.63;4958706;29;830;-66
2023/02/03 12:54:29;;;;;;;;;;;;;;;24.85;27.43;95525.25;4958607;28;1899;-66
2023/02/03 12:56:57;;;;;;;;;;;;;;;24.87;27.64;95533.06;4958269;29;877;-66
2023/02/03 12:59:24;;;;;;;;;;;;;;;24.87;27.39;95535.75;4949010;28;987;-66
2023/02/03 13:01:56;;;;;;;;;;;;;;;24.87;27.60;95536.59;4957911;28;936;-66
2023/02/03 13:04:39;;;;;;;;;;;;;;;24.86;27.34;95542.16;4958216;28;917;-66
2023/02/03 13:07:14;;;;;;;;;;;;;;;24.84;27.48;95541.53;4958175;29;937;-66